sensor_id;sensor_type;location;lat;lon;timestamp;pressure;altitude;pressure_sealevel;temperature;humidity
44127;BME280;29786;50.798;7.302;2023-02-04T00:00:35;100610;;;6.68;100
44127;BME280;29786;50.798;7.302;2023-02-04T00:01:34;100590;;;6.66;100
44127;BME280;29786;50.798;7.302;2023-02-04T00:02:34;100610;;;6.67;100
44127;BME280;29786;50.798;7.302;2023-02-04T00:03:34;100610;;;6.67;100
44127;BME280;29786;50.798;7.302;2023-02-04T00:04:34;100620;;;6.68;100
44127;BME280;29786;50.798;7.302;2023-02-04T00:05:34;100620;;;6.67;100
44127;BME280;29786;50.798;7.302;2023-02-04T00:06:34;100630;;;6.65;100
44127;BME280;29786;50.798;7.302;2023-02-04T00:07:34;100620;;;6.62;100
44127;BME280;29786;50.798;7.302;2023-02-04T00:08:34;100620;;;6.61;100
44127;BME280;29786;50.798;7.302;2023-02-04T00:09:34;100620;;;6.58;100
44127;BME280;29786;50.798;7.302;2023-02-04T00:10:35;100610;;;6.59;100
44127;BME280;29786;50.798;7.302;2023-02-04T00:11:35;100620;;;6.62;100
44127;BME280;29786;50.798;7.302;2023-02-04T00:12:34;100620;;;6.67;100
44127;BME280;29786;50.798;7.302;2023-02-04T00:13:33;100620;;;6.68;100
44127;BME280;29786;50.798;7.302;2023-02-04T00:14:33;100640;;;6.66;100
44127;BME280;29786;50.798;7.302;2023-02-04T00:15:33;100620;;;6.64;100
44127;BME280;29786;50.798;7.302;2023-02-04T00:16:34;100620;;;6.6;100
44127;BME280;29786;50.798;7.302;2023-02-04T00:17:34;100640;;;6.61;100
44127;BME280;29786;50.798;7.302;2023-02-04T00:18:34;100640;;;6.63;100
44127;BME280;29786;50.798;7.302;2023-02-04T00:19:34;100640;;;6.61;100
44127;BME280;29786;50.798;7.302;2023-02-04T00:20:35;100640;;;6.62;100
44127;BME280;29786;50.798;7.302;2023-02-04T00:21:33;100640;;;6.63;100
44127;BME280;29786;50.798;7.302;2023-02-04T00:22:34;100640;;;6.63;100
44127;BME280;29786;50.798;7.302;2023-02-04T00:23:34;100640;;;6.58;100
44127;BME280;29786;50.798;7.302;2023-02-04T00:24:34;100640;;;6.58;100
44127;BME280;29786;50.798;7.302;2023-02-04T00:25:34;100630;;;6.58;100
44127;BME280;29786;50.798;7.302;2023-02-04T00:26:34;100640;;;6.59;100
44127;BME280;29786;50.798;7.302;2023-02-04T00:27:34;100640;;;6.6;100
44127;BME280;29786;50.798;7.302;2023-02-04T00:28:34;100640;;;6.61;100
44127;BME280;29786;50.798;7.302;2023-02-04T00:29:34;100650;;;6.6;100
44127;BME280;29786;50.798;7.302;2023-02-04T00:30:35;100640;;;6.57;100
44127;BME280;29786;50.798;7.302;2023-02-04T00:31:34;100630;;;6.58;100
44127;BME280;29786;50.798;7.302;2023-02-04T00:32:34;100640;;;6.58;100
44127;BME280;29786;50.798;7.302;2023-02-04T00:33:34;100640;;;6.56;100
44127;BME280;29786;50.798;7.302;2023-02-04T00:34:34;100640;;;6.6;100
44127;BME280;29786;50.798;7.302;2023-02-04T00:35:35;100650;;;6.57;100
44127;BME280;29786;50.798;7.302;2023-02-04T00:36:35;100640;;;6.55;100
44127;BME280;29786;50.798;7.302;2023-02-04T00:37:33;100650;;;6.57;100
44127;BME280;29786;50.798;7.302;2023-02-04T00:38:34;100650;;;6.55;100
44127;BME280;29786;50.798;7.302;2023-02-04T00:39:34;100650;;;6.55;100
44127;BME280;29786;50.798;7.302;2023-02-04T00:40:35;100660;;;6.54;100
44127;BME280;29786;50.798;7.302;2023-02-04T00:41:34;100650;;;6.53;100
44127;BME280;29786;50.798;7.302;2023-02-04T00:42:34;100650;;;6.51;100
44127;BME280;29786;50.798;7.302;2023-02-04T00:43:35;100650;;;6.5;100
44127;BME280;29786;50.798;7.302;2023-02-04T00:44:34;100660;;;6.5;100
44127;BME280;29786;50.798;7.302;2023-02-04T00:45:35;100650;;;6.51;100
44127;BME280;29786;50.798;7.302;2023-02-04T00:46:34;100640;;;6.46;100
44127;BME280;29786;50.798;7.302;2023-02-04T00:47:34;100640;;;6.5;100
44127;BME280;29786;50.798;7.302;2023-02-04T00:48:34;100650;;;6.5;100
44127;BME280;29786;50.798;7.302;2023-02-04T00:49:34;100650;;;6.5;100
44127;BME280;29786;50.798;7.302;2023-02-04T00:50:34;100660;;;6.5;100
44127;BME280;29786;50.798;7.302;2023-02-04T00:51:35;100660;;;6.49;100
44127;BME280;29786;50.798;7.302;2023-02-04T00:52:34;100660;;;6.46;100
44127;BME280;29786;50.798;7.302;2023-02-04T00:53:34;100660;;;6.48;100
44127;BME280;29786;50.798;7.302;2023-02-04T00:54:35;100660;;;6.48;100
44127;BME280;29786;50.798;7.302;2023-02-04T00:55:34;100660;;;6.46;100
44127;BME280;29786;50.798;7.302;2023-02-04T00:56:34;100660;;;6.46;100
44127;BME280;29786;50.798;7.302;2023-02-04T00:57:35;100660;;;6.46;100
44127;BME280;29786;50.798;7.302;2023-02-04T00:58:34;100660;;;6.44;100
44127;BME280;29786;50.798;7.302;2023-02-04T00:59:35;100670;;;6.48;100
44127;BME280;29786;50.798;7.302;2023-02-04T01:00:33;100670;;;6.49;100
44127;BME280;29786;50.798;7.302;2023-02-04T01:01:34;100670;;;6.5;100
44127;BME280;29786;50.798;7.302;2023-02-04T01:02:34;100660;;;6.46;100
44127;BME280;29786;50.798;7.302;2023-02-04T01:03:34;100670;;;6.49;100
44127;BME280;29786;50.798;7.302;2023-02-04T01:04:34;100680;;;6.47;100
44127;BME280;29786;50.798;7.302;2023-02-04T01:05:34;100680;;;6.46;100
44127;BME280;29786;50.798;7.302;2023-02-04T01:06:34;100680;;;6.45;100
44127;BME280;29786;50.798;7.302;2023-02-04T01:07:34;100680;;;6.44;100
44127;BME280;29786;50.798;7.302;2023-02-04T01:08:34;100680;;;6.41;100
44127;BME280;29786;50.798;7.302;2023-02-04T01:09:34;100680;;;6.38;100
44127;BME280;29786;50.798;7.302;2023-02-04T01:10:34;100680;;;6.39;100
44127;BME280;29786;50.798;7.302;2023-02-04T01:11:34;100690;;;6.41;100
44127;BME280;29786;50.798;7.302;2023-02-04T01:12:33;100690;;;6.38;100
44127;BME280;29786;50.798;7.302;2023-02-04T01:13:34;100690;;;6.35;100
44127;BME280;29786;50.798;7.302;2023-02-04T01:14:35;100690;;;6.38;100
44127;BME280;29786;50.798;7.302;2023-02-04T01:15:34;100690;;;6.36;100
44127;BME280;29786;50.798;7.302;2023-02-04T01:16:34;100690;;;6.36;100
44127;BME280;29786;50.798;7.302;2023-02-04T01:17:34;100690;;;6.37;100
44127;BME280;29786;50.798;7.302;2023-02-04T01:18:34;100680;;;6.31;100
44127;BME280;29786;50.798;7.302;2023-02-04T01:19:34;100690;;;6.36;100
44127;BME280;29786;50.798;7.302;2023-02-04T01:20:34;100680;;;6.34;100
44127;BME280;29786;50.798;7.302;2023-02-04T01:21:35;100690;;;6.33;100
44127;BME280;29786;50.798;7.302;2023-02-04T01:23:34;100680;;;6.33;100
44127;BME280;29786;50.798;7.302;2023-02-04T01:24:33;100690;;;6.33;100
44127;BME280;29786;50.798;7.302;2023-02-04T01:25:34;100690;;;6.34;100
44127;BME280;29786;50.798;7.302;2023-02-04T01:26:34;100690;;;6.33;100
44127;BME280;29786;50.798;7.302;2023-02-04T01:27:35;100690;;;6.34;100
44127;BME280;29786;50.798;7.302;2023-02-04T01:28:34;100690;;;6.34;100
44127;BME280;29786;50.798;7.302;2023-02-04T01:29:35;100690;;;6.36;100
44127;BME280;29786;50.798;7.302;2023-02-04T01:30:34;100690;;;6.34;100
44127;BME280;29786;50.798;7.302;2023-02-04T01:31:34;100690;;;6.32;100
44127;BME280;29786;50.798;7.302;2023-02-04T01:32:34;100690;;;6.32;100
44127;BME280;29786;50.798;7.302;2023-02-04T01:33:34;100700;;;6.31;100
44127;BME280;29786;50.798;7.302;2023-02-04T01:34:33;100690;;;6.31;100
44127;BME280;29786;50.798;7.302;2023-02-04T01:35:34;100700;;;6.34;100
44127;BME280;29786;50.798;7.302;2023-02-04T01:36:34;100700;;;6.37;100
44127;BME280;29786;50.798;7.302;2023-02-04T01:37:34;100700;;;6.36;100
44127;BME280;29786;50.798;7.302;2023-02-04T01:38:34;100710;;;6.33;100
44127;BME280;29786;50.798;7.302;2023-02-04T01:39:33;100710;;;6.31;100
44127;BME280;29786;50.798;7.302;2023-02-04T01:40:36;100720;;;6.3;100
44127;BME280;29786;50.798;7.302;2023-02-04T01:41:35;100720;;;6.32;100
44127;BME280;29786;50.798;7.302;2023-02-04T01:42:34;100720;;;6.29;100
44127;BME280;29786;50.798;7.302;2023-02-04T01:43:34;100720;;;6.32;100
44127;BME280;29786;50.798;7.302;2023-02-04T01:44:33;100720;;;6.33;100
44127;BME280;29786;50.798;7.302;2023-02-04T01:45:34;100720;;;6.31;100
44127;BME280;29786;50.798;7.302;2023-02-04T01:46:34;100730;;;6.31;100
44127;BME280;29786;50.798;7.302;2023-02-04T01:47:34;100730;;;6.31;100
44127;BME280;29786;50.798;7.302;2023-02-04T01:48:34;100730;;;6.3;100
44127;BME280;29786;50.798;7.302;2023-02-04T01:49:35;100720;;;6.3;100
44127;BME280;29786;50.798;7.302;2023-02-04T01:50:34;100720;;;6.29;100
44127;BME280;29786;50.798;7.302;2023-02-04T01:51:34;100720;;;6.29;100
44127;BME280;29786;50.798;7.302;2023-02-04T01:52:35;100730;;;6.26;100
44127;BME280;29786;50.798;7.302;2023-02-04T01:53:34;100730;;;6.29;100
44127;BME280;29786;50.798;7.302;2023-02-04T01:54:34;100730;;;6.29;100
44127;BME280;29786;50.798;7.302;2023-02-04T01:55:35;100730;;;6.27;100
44127;BME280;29786;50.798;7.302;2023-02-04T01:56:33;100730;;;6.24;100
44127;BME280;29786;50.798;7.302;2023-02-04T01:57:34;100730;;;6.24;100
44127;BME280;29786;50.798;7.302;2023-02-04T01:58:34;100720;;;6.27;100
44127;BME280;29786;50.798;7.302;2023-02-04T01:59:34;100730;;;6.28;100
44127;BME280;29786;50.798;7.302;2023-02-04T02:00:34;100730;;;6.26;100
44127;BME280;29786;50.798;7.302;2023-02-04T02:01:36;100730;;;6.25;100
44127;BME280;29786;50.798;7.302;2023-02-04T02:02:36;100730;;;6.26;100
44127;BME280;29786;50.798;7.302;2023-02-04T02:03:34;100730;;;6.23;100
44127;BME280;29786;50.798;7.302;2023-02-04T02:04:33;100730;;;6.21;100
44127;BME280;29786;50.798;7.302;2023-02-04T02:05:36;100740;;;6.28;100
44127;BME280;29786;50.798;7.302;2023-02-04T02:06:34;100740;;;6.25;100
44127;BME280;29786;50.798;7.302;2023-02-04T02:07:34;100740;;;6.24;100
44127;BME280;29786;50.798;7.302;2023-02-04T02:08:34;100730;;;6.24;100
44127;BME280;29786;50.798;7.302;2023-02-04T02:09:34;100730;;;6.24;100
44127;BME280;29786;50.798;7.302;2023-02-04T02:10:34;100740;;;6.25;100
44127;BME280;29786;50.798;7.302;2023-02-04T02:11:34;100740;;;6.22;100
44127;BME280;29786;50.798;7.302;2023-02-04T02:12:34;100730;;;6.19;100
44127;BME280;29786;50.798;7.302;2023-02-04T02:13:34;100730;;;6.19;100
44127;BME280;29786;50.798;7.302;2023-02-04T02:14:34;100740;;;6.19;100
44127;BME280;29786;50.798;7.302;2023-02-04T02:15:34;100730;;;6.18;100
44127;BME280;29786;50.798;7.302;2023-02-04T02:16:34;100740;;;6.22;100
44127;BME280;29786;50.798;7.302;2023-02-04T02:17:34;100730;;;6.2;100
44127;BME280;29786;50.798;7.302;2023-02-04T02:18:34;100740;;;6.21;100
44127;BME280;29786;50.798;7.302;2023-02-04T02:19:35;100740;;;6.21;100
44127;BME280;29786;50.798;7.302;2023-02-04T02:20:34;100730;;;6.18;100
44127;BME280;29786;50.798;7.302;2023-02-04T02:21:43;100740;;;6.2;100
44127;BME280;29786;50.798;7.302;2023-02-04T02:22:36;100740;;;6.18;100
44127;BME280;29786;50.798;7.302;2023-02-04T02:24:34;100740;;;6.17;100
44127;BME280;29786;50.798;7.302;2023-02-04T02:24:39;100740;;;6.15;100
44127;BME280;29786;50.798;7.302;2023-02-04T02:25:35;100740;;;6.18;100
44127;BME280;29786;50.798;7.302;2023-02-04T02:26:34;100740;;;6.2;100
44127;BME280;29786;50.798;7.302;2023-02-04T02:27:34;100750;;;6.2;100
44127;BME280;29786;50.798;7.302;2023-02-04T02:28:34;100740;;;6.18;100
44127;BME280;29786;50.798;7.302;2023-02-04T02:30:34;100740;;;6.18;100
44127;BME280;29786;50.798;7.302;2023-02-04T02:31:35;100750;;;6.2;100
44127;BME280;29786;50.798;7.302;2023-02-04T02:32:35;100740;;;6.18;100
44127;BME280;29786;50.798;7.302;2023-02-04T02:33:34;100740;;;6.12;100
44127;BME280;29786;50.798;7.302;2023-02-04T02:34:34;100750;;;6.15;100
44127;BME280;29786;50.798;7.302;2023-02-04T02:35:33;100750;;;6.15;100
44127;BME280;29786;50.798;7.302;2023-02-04T02:36:34;100750;;;6.15;100
44127;BME280;29786;50.798;7.302;2023-02-04T02:37:35;100750;;;6.14;100
44127;BME280;29786;50.798;7.302;2023-02-04T02:38:34;100750;;;6.12;100
44127;BME280;29786;50.798;7.302;2023-02-04T02:39:34;100750;;;6.12;100
44127;BME280;29786;50.798;7.302;2023-02-04T02:40:34;100750;;;6.1;100
44127;BME280;29786;50.798;7.302;2023-02-04T02:41:33;100750;;;6.12;100
44127;BME280;29786;50.798;7.302;2023-02-04T02:42:35;100750;;;6.11;100
44127;BME280;29786;50.798;7.302;2023-02-04T02:43:34;100750;;;6.14;100
44127;BME280;29786;50.798;7.302;2023-02-04T02:44:34;100760;;;6.14;100
44127;BME280;29786;50.798;7.302;2023-02-04T02:45:34;100760;;;6.14;100
44127;BME280;29786;50.798;7.302;2023-02-04T02:46:34;100750;;;6.15;100
44127;BME280;29786;50.798;7.302;2023-02-04T02:47:34;100750;;;6.14;100
44127;BME280;29786;50.798;7.302;2023-02-04T02:48:33;100760;;;6.14;100
44127;BME280;29786;50.798;7.302;2023-02-04T02:49:34;100750;;;6.12;100
44127;BME280;29786;50.798;7.302;2023-02-04T02:50:35;100760;;;6.16;100
44127;BME280;29786;50.798;7.302;2023-02-04T02:51:33;100760;;;6.14;100
44127;BME280;29786;50.798;7.302;2023-02-04T02:52:34;100760;;;6.13;100
44127;BME280;29786;50.798;7.302;2023-02-04T02:53:34;100760;;;6.14;100
44127;BME280;29786;50.798;7.302;2023-02-04T02:54:33;100770;;;6.14;100
44127;BME280;29786;50.798;7.302;2023-02-04T02:55:34;100770;;;6.14;100
44127;BME280;29786;50.798;7.302;2023-02-04T02:56:34;100770;;;6.18;100
44127;BME280;29786;50.798;7.302;2023-02-04T02:57:34;100770;;;6.15;100
44127;BME280;29786;50.798;7.302;2023-02-04T02:58:34;100770;;;6.18;100
44127;BME280;29786;50.798;7.302;2023-02-04T02:59:35;100780;;;6.16;100
44127;BME280;29786;50.798;7.302;2023-02-04T03:00:34;100780;;;6.15;100
44127;BME280;29786;50.798;7.302;2023-02-04T03:01:34;100780;;;6.12;100
44127;BME280;29786;50.798;7.302;2023-02-04T03:02:35;100780;;;6.12;100
44127;BME280;29786;50.798;7.302;2023-02-04T03:03:36;100780;;;6.14;100
44127;BME280;29786;50.798;7.302;2023-02-04T03:04:37;100770;;;6.18;100
44127;BME280;29786;50.798;7.302;2023-02-04T03:05:35;100790;;;6.11;100
44127;BME280;29786;50.798;7.302;2023-02-04T03:06:35;100780;;;6.14;100
44127;BME280;29786;50.798;7.302;2023-02-04T03:07:34;100780;;;6.17;100
44127;BME280;29786;50.798;7.302;2023-02-04T03:08:34;100780;;;6.17;100
44127;BME280;29786;50.798;7.302;2023-02-04T03:09:35;100780;;;6.15;100
44127;BME280;29786;50.798;7.302;2023-02-04T03:10:34;100780;;;6.15;100
44127;BME280;29786;50.798;7.302;2023-02-04T03:11:34;100780;;;6.1;100
44127;BME280;29786;50.798;7.302;2023-02-04T03:12:35;100790;;;6.11;100
44127;BME280;29786;50.798;7.302;2023-02-04T03:13:33;100780;;;6.1;100
44127;BME280;29786;50.798;7.302;2023-02-04T03:14:34;100780;;;6.08;100
44127;BME280;29786;50.798;7.302;2023-02-04T03:15:34;100780;;;6.07;100
44127;BME280;29786;50.798;7.302;2023-02-04T03:16:35;100780;;;6.09;100
44127;BME280;29786;50.798;7.302;2023-02-04T03:17:34;100790;;;6.08;100
44127;BME280;29786;50.798;7.302;2023-02-04T03:18:34;100790;;;6.08;100
44127;BME280;29786;50.798;7.302;2023-02-04T03:19:34;100790;;;6.08;100
44127;BME280;29786;50.798;7.302;2023-02-04T03:20:34;100790;;;6.08;100
44127;BME280;29786;50.798;7.302;2023-02-04T03:21:34;100790;;;6.08;100
44127;BME280;29786;50.798;7.302;2023-02-04T03:22:35;100790;;;6.06;100
44127;BME280;29786;50.798;7.302;2023-02-04T03:23:34;100790;;;6.09;100
44127;BME280;29786;50.798;7.302;2023-02-04T03:24:34;100780;;;6.12;100
44127;BME280;29786;50.798;7.302;2023-02-04T03:25:34;100790;;;6.13;100
44127;BME280;29786;50.798;7.302;2023-02-04T03:26:34;100790;;;6.13;100
44127;BME280;29786;50.798;7.302;2023-02-04T03:27:34;100790;;;6.14;100
44127;BME280;29786;50.798;7.302;2023-02-04T03:28:37;100800;;;6.14;100
44127;BME280;29786;50.798;7.302;2023-02-04T03:29:39;100790;;;6.14;100
44127;BME280;29786;50.798;7.302;2023-02-04T03:30:34;100800;;;6.16;100
44127;BME280;29786;50.798;7.302;2023-02-04T03:31:35;100800;;;6.14;100
44127;BME280;29786;50.798;7.302;2023-02-04T03:32:34;100800;;;6.12;100
44127;BME280;29786;50.798;7.302;2023-02-04T03:33:34;100790;;;6.09;100
44127;BME280;29786;50.798;7.302;2023-02-04T03:34:34;100800;;;6.08;100
44127;BME280;29786;50.798;7.302;2023-02-04T03:35:34;100790;;;6.06;100
44127;BME280;29786;50.798;7.302;2023-02-04T03:36:35;100790;;;6.06;100
44127;BME280;29786;50.798;7.302;2023-02-04T03:37:34;100800;;;6.06;100
44127;BME280;29786;50.798;7.302;2023-02-04T03:38:33;100800;;;6.05;100
44127;BME280;29786;50.798;7.302;2023-02-04T03:39:34;100800;;;6.07;100
44127;BME280;29786;50.798;7.302;2023-02-04T03:40:35;100800;;;6.09;100
44127;BME280;29786;50.798;7.302;2023-02-04T03:41:34;100810;;;6.07;100
44127;BME280;29786;50.798;7.302;2023-02-04T03:42:34;100810;;;6.07;100
44127;BME280;29786;50.798;7.302;2023-02-04T03:43:34;100810;;;6.06;100
44127;BME280;29786;50.798;7.302;2023-02-04T03:44:34;100810;;;6.03;100
44127;BME280;29786;50.798;7.302;2023-02-04T03:45:34;100810;;;6.04;100
44127;BME280;29786;50.798;7.302;2023-02-04T03:46:34;100810;;;6.08;100
44127;BME280;29786;50.798;7.302;2023-02-04T03:47:34;100810;;;6.07;100
44127;BME280;29786;50.798;7.302;2023-02-04T03:48:34;100810;;;6.06;100
44127;BME280;29786;50.798;7.302;2023-02-04T03:49:34;100810;;;6.07;100
44127;BME280;29786;50.798;7.302;2023-02-04T03:50:34;100810;;;6.11;100
44127;BME280;29786;50.798;7.302;2023-02-04T03:51:34;100810;;;6.09;100
44127;BME280;29786;50.798;7.302;2023-02-04T03:52:34;100810;;;6.06;100
44127;BME280;29786;50.798;7.302;2023-02-04T03:53:34;100810;;;6.05;100
44127;BME280;29786;50.798;7.302;2023-02-04T03:54:34;100810;;;6.05;100
44127;BME280;29786;50.798;7.302;2023-02-04T03:55:35;100820;;;6.05;100
44127;BME280;29786;50.798;7.302;2023-02-04T03:56:34;100820;;;5.99;100
44127;BME280;29786;50.798;7.302;2023-02-04T03:57:35;100820;;;6;100
44127;BME280;29786;50.798;7.302;2023-02-04T03:58:34;100810;;;5.99;100
44127;BME280;29786;50.798;7.302;2023-02-04T03:59:34;100810;;;5.98;100
44127;BME280;29786;50.798;7.302;2023-02-04T04:00:34;100810;;;5.98;100
44127;BME280;29786;50.798;7.302;2023-02-04T04:01:34;100810;;;5.97;100
44127;BME280;29786;50.798;7.302;2023-02-04T04:02:35;100810;;;5.97;100
44127;BME280;29786;50.798;7.302;2023-02-04T04:03:34;100810;;;5.98;100
44127;BME280;29786;50.798;7.302;2023-02-04T04:04:35;100810;;;5.95;100
44127;BME280;29786;50.798;7.302;2023-02-04T04:05:34;100810;;;5.97;100
44127;BME280;29786;50.798;7.302;2023-02-04T04:06:34;100810;;;5.96;100
44127;BME280;29786;50.798;7.302;2023-02-04T04:07:34;100810;;;5.96;100
44127;BME280;29786;50.798;7.302;2023-02-04T04:08:34;100810;;;5.96;100
44127;BME280;29786;50.798;7.302;2023-02-04T04:09:34;100810;;;5.96;100
44127;BME280;29786;50.798;7.302;2023-02-04T04:10:35;100810;;;5.96;100
44127;BME280;29786;50.798;7.302;2023-02-04T04:11:35;100810;;;5.97;100
44127;BME280;29786;50.798;7.302;2023-02-04T04:12:34;100820;;;5.96;100
44127;BME280;29786;50.798;7.302;2023-02-04T04:13:33;100820;;;5.93;100
44127;BME280;29786;50.798;7.302;2023-02-04T04:14:34;100820;;;5.92;100
44127;BME280;29786;50.798;7.302;2023-02-04T04:15:33;100820;;;5.94;100
44127;BME280;29786;50.798;7.302;2023-02-04T04:16:34;100820;;;5.93;100
44127;BME280;29786;50.798;7.302;2023-02-04T04:17:34;100820;;;5.95;100
44127;BME280;29786;50.798;7.302;2023-02-04T04:18:34;100820;;;5.97;100
44127;BME280;29786;50.798;7.302;2023-02-04T04:19:34;100820;;;5.97;100
44127;BME280;29786;50.798;7.302;2023-02-04T04:20:34;100820;;;5.96;100
44127;BME280;29786;50.798;7.302;2023-02-04T04:21:34;100820;;;5.96;100
44127;BME280;29786;50.798;7.302;2023-02-04T04:22:34;100830;;;5.93;100
44127;BME280;29786;50.798;7.302;2023-02-04T04:23:34;100820;;;5.91;100
44127;BME280;29786;50.798;7.302;2023-02-04T04:24:34;100820;;;5.88;100
44127;BME280;29786;50.798;7.302;2023-02-04T04:25:34;100830;;;5.87;100
44127;BME280;29786;50.798;7.302;2023-02-04T04:26:35;100820;;;5.86;100
44127;BME280;29786;50.798;7.302;2023-02-04T04:27:34;100830;;;5.86;100
44127;BME280;29786;50.798;7.302;2023-02-04T04:28:34;100830;;;5.88;100
44127;BME280;29786;50.798;7.302;2023-02-04T04:29:34;100830;;;5.88;100
44127;BME280;29786;50.798;7.302;2023-02-04T04:30:34;100830;;;5.88;100
44127;BME280;29786;50.798;7.302;2023-02-04T04:31:34;100830;;;5.88;100
44127;BME280;29786;50.798;7.302;2023-02-04T04:32:34;100830;;;5.87;100
44127;BME280;29786;50.798;7.302;2023-02-04T04:33:34;100840;;;5.87;100
44127;BME280;29786;50.798;7.302;2023-02-04T04:34:34;100830;;;5.86;100
44127;BME280;29786;50.798;7.302;2023-02-04T04:35:35;100830;;;5.84;100
44127;BME280;29786;50.798;7.302;2023-02-04T04:36:34;100830;;;5.83;100
44127;BME280;29786;50.798;7.302;2023-02-04T04:37:36;100830;;;5.83;100
44127;BME280;29786;50.798;7.302;2023-02-04T04:38:33;100830;;;5.83;100
44127;BME280;29786;50.798;7.302;2023-02-04T04:39:34;100830;;;5.85;100
44127;BME280;29786;50.798;7.302;2023-02-04T04:40:34;100830;;;5.84;100
44127;BME280;29786;50.798;7.302;2023-02-04T04:41:34;100840;;;5.82;100
44127;BME280;29786;50.798;7.302;2023-02-04T04:42:34;100830;;;5.82;100
44127;BME280;29786;50.798;7.302;2023-02-04T04:43:32;100830;;;5.83;100
44127;BME280;29786;50.798;7.302;2023-02-04T04:44:34;100830;;;5.84;100
44127;BME280;29786;50.798;7.302;2023-02-04T04:45:33;100840;;;5.84;100
44127;BME280;29786;50.798;7.302;2023-02-04T04:46:35;100840;;;5.82;100
44127;BME280;29786;50.798;7.302;2023-02-04T04:47:34;100840;;;5.81;100
44127;BME280;29786;50.798;7.302;2023-02-04T04:48:35;100840;;;5.8;100
44127;BME280;29786;50.798;7.302;2023-02-04T04:49:35;100840;;;5.78;100
44127;BME280;29786;50.798;7.302;2023-02-04T04:50:33;100840;;;5.78;100
44127;BME280;29786;50.798;7.302;2023-02-04T04:51:34;100850;;;5.8;100
44127;BME280;29786;50.798;7.302;2023-02-04T04:52:34;100840;;;5.78;100
44127;BME280;29786;50.798;7.302;2023-02-04T04:53:34;100850;;;5.77;100
44127;BME280;29786;50.798;7.302;2023-02-04T04:54:34;100850;;;5.79;100
44127;BME280;29786;50.798;7.302;2023-02-04T04:55:34;100860;;;5.77;100
44127;BME280;29786;50.798;7.302;2023-02-04T04:56:35;100860;;;5.77;100
44127;BME280;29786;50.798;7.302;2023-02-04T04:57:34;100860;;;5.74;100
44127;BME280;29786;50.798;7.302;2023-02-04T04:58:34;100860;;;5.73;100
44127;BME280;29786;50.798;7.302;2023-02-04T04:59:33;100860;;;5.72;100
44127;BME280;29786;50.798;7.302;2023-02-04T05:00:33;100860;;;5.72;100
44127;BME280;29786;50.798;7.302;2023-02-04T05:01:35;100860;;;5.75;100
44127;BME280;29786;50.798;7.302;2023-02-04T05:02:34;100870;;;5.75;100
44127;BME280;29786;50.798;7.302;2023-02-04T05:03:34;100860;;;5.75;100
44127;BME280;29786;50.798;7.302;2023-02-04T05:04:34;100870;;;5.73;100
44127;BME280;29786;50.798;7.302;2023-02-04T05:05:34;100870;;;5.76;100
44127;BME280;29786;50.798;7.302;2023-02-04T05:06:34;100870;;;5.78;100
44127;BME280;29786;50.798;7.302;2023-02-04T05:07:34;100870;;;5.75;100
44127;BME280;29786;50.798;7.302;2023-02-04T05:08:35;100870;;;5.73;100
44127;BME280;29786;50.798;7.302;2023-02-04T05:09:34;100870;;;5.73;100
44127;BME280;29786;50.798;7.302;2023-02-04T05:10:35;100870;;;5.72;100
44127;BME280;29786;50.798;7.302;2023-02-04T05:11:34;100870;;;5.77;100
44127;BME280;29786;50.798;7.302;2023-02-04T05:12:34;100870;;;5.77;100
44127;BME280;29786;50.798;7.302;2023-02-04T05:13:33;100870;;;5.76;100
44127;BME280;29786;50.798;7.302;2023-02-04T05:14:34;100870;;;5.71;100
44127;BME280;29786;50.798;7.302;2023-02-04T05:15:35;100870;;;5.72;100
44127;BME280;29786;50.798;7.302;2023-02-04T05:16:35;100870;;;5.73;100
44127;BME280;29786;50.798;7.302;2023-02-04T05:17:34;100880;;;5.73;100
44127;BME280;29786;50.798;7.302;2023-02-04T05:18:34;100870;;;5.75;100
44127;BME280;29786;50.798;7.302;2023-02-04T05:19:34;100870;;;5.78;100
44127;BME280;29786;50.798;7.302;2023-02-04T05:20:34;100870;;;5.77;100
44127;BME280;29786;50.798;7.302;2023-02-04T05:21:34;100880;;;5.76;100
44127;BME280;29786;50.798;7.302;2023-02-04T05:22:34;100870;;;5.75;100
44127;BME280;29786;50.798;7.302;2023-02-04T05:23:34;100870;;;5.76;100
44127;BME280;29786;50.798;7.302;2023-02-04T05:24:34;100880;;;5.75;100
44127;BME280;29786;50.798;7.302;2023-02-04T05:25:34;100870;;;5.73;100
44127;BME280;29786;50.798;7.302;2023-02-04T05:26:34;100870;;;5.72;100
44127;BME280;29786;50.798;7.302;2023-02-04T05:27:34;100880;;;5.72;100
44127;BME280;29786;50.798;7.302;2023-02-04T05:28:34;100870;;;5.72;100
44127;BME280;29786;50.798;7.302;2023-02-04T05:29:33;100880;;;5.73;100
44127;BME280;29786;50.798;7.302;2023-02-04T05:30:34;100870;;;5.72;100
44127;BME280;29786;50.798;7.302;2023-02-04T05:31:35;100870;;;5.72;100
44127;BME280;29786;50.798;7.302;2023-02-04T05:32:35;100870;;;5.76;100
44127;BME280;29786;50.798;7.302;2023-02-04T05:33:34;100880;;;5.75;100
44127;BME280;29786;50.798;7.302;2023-02-04T05:34:34;100880;;;5.73;100
44127;BME280;29786;50.798;7.302;2023-02-04T05:35:34;100870;;;5.71;100
44127;BME280;29786;50.798;7.302;2023-02-04T05:36:34;100880;;;5.73;100
44127;BME280;29786;50.798;7.302;2023-02-04T05:37:34;100880;;;5.74;100
44127;BME280;29786;50.798;7.302;2023-02-04T05:38:34;100880;;;5.77;100
44127;BME280;29786;50.798;7.302;2023-02-04T05:39:34;100880;;;5.77;100
44127;BME280;29786;50.798;7.302;2023-02-04T05:40:34;100880;;;5.77;100
44127;BME280;29786;50.798;7.302;2023-02-04T05:41:34;100880;;;5.75;100
44127;BME280;29786;50.798;7.302;2023-02-04T05:42:33;100880;;;5.73;100